sensor_id;sensor_type;location;lat;lon;timestamp;pressure;altitude;pressure_sealevel;temperature;humidity
36258;BME280;22294;52.044;4.582;2022-10-15T00:02:04;75840.38;;;-144.37;100.00
36258;BME280;22294;52.044;4.582;2022-10-15T00:04:30;75838.34;;;-144.37;100.00
36258;BME280;22294;52.044;4.582;2022-10-15T00:06:56;75836.28;;;-144.37;100.00
36258;BME280;22294;52.044;4.582;2022-10-15T00:09:21;75832.19;;;-144.37;100.00
36258;BME280;22294;52.044;4.582;2022-10-15T00:11:46;75830.16;;;-144.37;100.00
36258;BME280;22294;52.044;4.582;2022-10-15T00:14:12;75832.19;;;-144.37;100.00
36258;BME280;22294;52.044;4.582;2022-10-15T00:16:37;75830.16;;;-144.37;100.00
36258;BME280;22294;52.044;4.582;2022-10-15T00:19:02;75824.03;;;-144.37;100.00
36258;BME280;22294;52.044;4.582;2022-10-15T00:21:28;75819.94;;;-144.37;100.00
36258;BME280;22294;52.044;4.582;2022-10-15T00:23:54;75817.88;;;-144.37;100.00
36258;BME280;22294;52.044;4.582;2022-10-15T00:26:21;75811.75;;;-144.37;100.00
36258;BME280;22294;52.044;4.582;2022-10-15T00:28:51;75813.78;;;-144.37;100.00
36258;BME280;22294;52.044;4.582;2022-10-15T00:31:18;75811.75;;;-144.37;100.00
36258;BME280;22294;52.044;4.582;2022-10-15T00:33:49;75807.66;;;-144.37;100.00
36258;BME280;22294;52.044;4.582;2022-10-15T00:36:18;75803.56;;;-144.37;100.00
36258;BME280;22294;52.044;4.582;2022-10-15T00:38:44;75801.53;;;-144.37;100.00
36258;BME280;22294;52.044;4.582;2022-10-15T00:41:16;75799.47;;;-144.37;100.00
36258;BME280;22294;52.044;4.582;2022-10-15T00:46:21;75799.47;;;-144.37;100.00
36258;BME280;22294;52.044;4.582;2022-10-15T00:48:52;75795.38;;;-144.37;100.00
36258;BME280;22294;52.044;4.582;2022-10-15T00:51:19;75801.53;;;-144.37;100.00
36258;BME280;22294;52.044;4.582;2022-10-15T00:53:47;75803.56;;;-144.37;100.00
36258;BME280;22294;52.044;4.582;2022-10-15T00:56:15;75801.53;;;-144.37;100.00
36258;BME280;22294;52.044;4.582;2022-10-15T00:58:41;75799.47;;;-144.37;100.00
36258;BME280;22294;52.044;4.582;2022-10-15T01:01:07;75793.34;;;-144.37;100.00
36258;BME280;22294;52.044;4.582;2022-10-15T01:03:32;75797.44;;;-144.37;100.00
36258;BME280;22294;52.044;4.582;2022-10-15T01:06:00;75795.38;;;-144.37;100.00
36258;BME280;22294;52.044;4.582;2022-10-15T01:08:27;75795.38;;;-144.37;100.00
36258;BME280;22294;52.044;4.582;2022-10-15T01:25:34;75783.13;;;-144.37;100.00
36258;BME280;22294;52.044;4.582;2022-10-15T01:28:15;75781.06;;;-144.37;100.00
36258;BME280;22294;52.044;4.582;2022-10-15T01:30:54;75781.06;;;-144.37;100.00
36258;BME280;22294;52.044;4.582;2022-10-15T01:33:40;75783.13;;;-144.37;100.00
36258;BME280;22294;52.044;4.582;2022-10-15T01:36:26;75789.25;;;-144.37;100.00
36258;BME280;22294;52.044;4.582;2022-10-15T01:39:09;75793.34;;;-144.37;100.00
36258;BME280;22294;52.044;4.582;2022-10-15T01:41:41;75793.34;;;-144.37;100.00
36258;BME280;22294;52.044;4.582;2022-10-15T01:44:33;75797.44;;;-144.37;100.00
36258;BME280;22294;52.044;4.582;2022-10-15T01:47:06;75803.56;;;-144.37;100.00
36258;BME280;22294;52.044;4.582;2022-10-15T01:49:38;75803.56;;;-144.37;100.00
36258;BME280;22294;52.044;4.582;2022-10-15T01:52:09;75801.53;;;-144.37;100.00
36258;BME280;22294;52.044;4.582;2022-10-15T01:54:38;75797.44;;;-144.37;100.00
36258;BME280;22294;52.044;4.582;2022-10-15T01:57:05;75797.44;;;-144.37;100.00
36258;BME280;22294;52.044;4.582;2022-10-15T01:59:32;75785.16;;;-144.37;100.00
36258;BME280;22294;52.044;4.582;2022-10-15T02:01:58;75783.13;;;-144.37;100.00
36258;BME280;22294;52.044;4.582;2022-10-15T02:04:25;75774.94;;;-144.37;100.00
36258;BME280;22294;52.044;4.582;2022-10-15T02:07:04;75768.81;;;-144.37;100.00
36258;BME280;22294;52.044;4.582;2022-10-15T02:12:30;75764.72;;;-144.37;100.00
36258;BME280;22294;52.044;4.582;2022-10-15T02:20:35;75758.59;;;-144.37;100.00
36258;BME280;22294;52.044;4.582;2022-10-15T02:23:20;75760.63;;;-144.37;100.00
36258;BME280;22294;52.044;4.582;2022-10-15T02:25:47;75752.44;;;-144.37;100.00
36258;BME280;22294;52.044;4.582;2022-10-15T02:28:16;75750.41;;;-144.37;100.00
36258;BME280;22294;52.044;4.582;2022-10-15T02:30:44;75750.41;;;-144.37;100.00
36258;BME280;22294;52.044;4.582;2022-10-15T02:33:12;75750.41;;;-144.37;100.00
36258;BME280;22294;52.044;4.582;2022-10-15T02:35:38;75752.44;;;-144.37;100.00
36258;BME280;22294;52.044;4.582;2022-10-15T02:38:07;75748.34;;;-144.37;100.00
36258;BME280;22294;52.044;4.582;2022-10-15T02:40:34;75748.34;;;-144.37;100.00
36258;BME280;22294;52.044;4.582;2022-10-15T02:43:05;75746.31;;;-144.37;100.00
36258;BME280;22294;52.044;4.582;2022-10-15T02:45:30;75744.25;;;-144.37;100.00
36258;BME280;22294;52.044;4.582;2022-10-15T02:47:56;75746.31;;;-144.37;100.00
36258;BME280;22294;52.044;4.582;2022-10-15T02:50:21;75748.34;;;-144.37;100.00
36258;BME280;22294;52.044;4.582;2022-10-15T02:52:46;75750.41;;;-144.37;100.00
36258;BME280;22294;52.044;4.582;2022-10-15T02:55:12;75752.44;;;-144.37;100.00
36258;BME280;22294;52.044;4.582;2022-10-15T02:57:37;75756.53;;;-144.37;100.00
36258;BME280;22294;52.044;4.582;2022-10-15T03:00:03;75758.59;;;-144.37;100.00
36258;BME280;22294;52.044;4.582;2022-10-15T03:02:29;75762.66;;;-144.37;100.00
36258;BME280;22294;52.044;4.582;2022-10-15T03:04:54;75766.75;;;-144.37;100.00
36258;BME280;22294;52.044;4.582;2022-10-15T03:07:19;75770.84;;;-144.37;100.00
36258;BME280;22294;52.044;4.582;2022-10-15T03:09:44;75785.16;;;-144.37;100.00
36258;BME280;22294;52.044;4.582;2022-10-15T03:12:10;75789.25;;;-144.37;100.00
36258;BME280;22294;52.044;4.582;2022-10-15T03:14:35;75795.38;;;-144.37;100.00
36258;BME280;22294;52.044;4.582;2022-10-15T03:17:00;75805.63;;;-144.37;100.00
36258;BME280;22294;52.044;4.582;2022-10-15T03:19:25;75807.66;;;-144.37;100.00
36258;BME280;22294;52.044;4.582;2022-10-15T03:21:51;75815.84;;;-144.37;100.00
36258;BME280;22294;52.044;4.582;2022-10-15T03:24:16;75824.03;;;-144.37;100.00
36258;BME280;22294;52.044;4.582;2022-10-15T03:26:41;75819.94;;;-144.37;100.00
36258;BME280;22294;52.044;4.582;2022-10-15T03:29:06;75817.88;;;-144.37;100.00
36258;BME280;22294;52.044;4.582;2022-10-15T03:31:32;75819.94;;;-144.37;100.00
36258;BME280;22294;52.044;4.582;2022-10-15T03:33:57;75809.72;;;-144.37;100.00
36258;BME280;22294;52.044;4.582;2022-10-15T03:36:22;75815.84;;;-144.37;100.00
36258;BME280;22294;52.044;4.582;2022-10-15T03:38:47;75819.94;;;-144.37;100.00
36258;BME280;22294;52.044;4.582;2022-10-15T03:41:13;75821.97;;;-144.37;100.00
36258;BME280;22294;52.044;4.582;2022-10-15T03:43:38;75828.09;;;-144.37;100.00
36258;BME280;22294;52.044;4.582;2022-10-15T03:46:04;75828.09;;;-144.37;100.00
36258;BME280;22294;52.044;4.582;2022-10-15T03:48:29;75838.34;;;-144.37;100.00
36258;BME280;22294;52.044;4.582;2022-10-15T03:50:55;75846.50;;;-144.37;100.00
36258;BME280;22294;52.044;4.582;2022-10-15T03:53:21;75842.44;;;-144.37;100.00
36258;BME280;22294;52.044;4.582;2022-10-15T03:55:46;75838.34;;;-144.37;100.00
36258;BME280;22294;52.044;4.582;2022-10-15T03:58:12;75840.38;;;-144.37;100.00
36258;BME280;22294;52.044;4.582;2022-10-15T04:00:40;75846.50;;;-144.37;100.00
36258;BME280;22294;52.044;4.582;2022-10-15T04:03:06;75842.44;;;-144.37;100.00
36258;BME280;22294;52.044;4.582;2022-10-15T04:05:32;75840.38;;;-144.37;100.00
36258;BME280;22294;52.044;4.582;2022-10-15T04:07:57;75836.28;;;-144.37;100.00
36258;BME280;22294;52.044;4.582;2022-10-15T04:10:22;75828.09;;;-144.37;100.00
36258;BME280;22294;52.044;4.582;2022-10-15T04:12:48;75826.06;;;-144.37;100.00
36258;BME280;22294;52.044;4.582;2022-10-15T04:15:16;75821.97;;;-144.37;100.00
36258;BME280;22294;52.044;4.582;2022-10-15T04:17:41;75828.09;;;-144.37;100.00
36258;BME280;22294;52.044;4.582;2022-10-15T04:20:07;75819.94;;;-144.37;100.00
36258;BME280;22294;52.044;4.582;2022-10-15T04:22:33;75813.78;;;-144.37;100.00
36258;BME280;22294;52.044;4.582;2022-10-15T04:24:58;75801.53;;;-144.37;100.00
36258;BME280;22294;52.044;4.582;2022-10-15T04:27:23;75793.34;;;-144.37;100.00
36258;BME280;22294;52.044;4.582;2022-10-15T04:29:49;75785.16;;;-144.37;100.00
36258;BME280;22294;52.044;4.582;2022-10-15T04:32:14;75768.81;;;-144.37;100.00
36258;BME280;22294;52.044;4.582;2022-10-15T04:34:40;75760.63;;;-144.37;100.00
36258;BME280;22294;52.044;4.582;2022-10-15T04:37:05;75748.34;;;-144.37;100.00
36258;BME280;22294;52.044;4.582;2022-10-15T04:39:30;75740.19;;;-144.37;100.00
36258;BME280;22294;52.044;4.582;2022-10-15T04:41:56;75734.03;;;-144.37;100.00
36258;BME280;22294;52.044;4.582;2022-10-15T04:44:21;75736.09;;;-144.37;100.00
36258;BME280;22294;52.044;4.582;2022-10-15T04:46:46;75738.13;;;-144.37;100.00
36258;BME280;22294;52.044;4.582;2022-10-15T04:49:11;75729.94;;;-144.37;100.00
36258;BME280;22294;52.044;4.582;2022-10-15T04:51:37;75729.94;;;-144.37;100.00
36258;BME280;22294;52.044;4.582;2022-10-15T04:54:02;75734.03;;;-144.37;100.00
36258;BME280;22294;52.044;4.582;2022-10-15T04:56:27;75732.00;;;-144.37;100.00
36258;BME280;22294;52.044;4.582;2022-10-15T04:58:53;75734.03;;;-144.37;100.00
36258;BME280;22294;52.044;4.582;2022-10-15T05:01:19;75734.03;;;-144.37;100.00
36258;BME280;22294;52.044;4.582;2022-10-15T05:03:46;75732.00;;;-144.37;100.00
36258;BME280;22294;52.044;4.582;2022-10-15T05:06:18;75721.78;;;-144.37;100.00
36258;BME280;22294;52.044;4.582;2022-10-15T05:08:44;75721.78;;;-144.37;100.00
36258;BME280;22294;52.044;4.582;2022-10-15T05:11:14;75723.81;;;-144.37;100.00
36258;BME280;22294;52.044;4.582;2022-10-15T05:13:40;75723.81;;;-144.37;100.00
36258;BME280;22294;52.044;4.582;2022-10-15T05:16:22;75719.72;;;-144.37;100.00
36258;BME280;22294;52.044;4.582;2022-10-15T05:18:50;75717.69;;;-144.37;100.00
36258;BME280;22294;52.044;4.582;2022-10-15T05:21:16;75711.53;;;-144.37;100.00
36258;BME280;22294;52.044;4.582;2022-10-15T05:23:42;75721.78;;;-144.37;100.00
36258;BME280;22294;52.044;4.582;2022-10-15T05:26:11;75717.69;;;-144.37;100.00
36258;BME280;22294;52.044;4.582;2022-10-15T05:28:37;75715.63;;;-144.37;100.00
36258;BME280;22294;52.044;4.582;2022-10-15T05:31:13;75719.72;;;-144.37;100.00
36258;BME280;22294;52.044;4.582;2022-10-15T05:33:39;75721.78;;;-144.37;100.00
36258;BME280;22294;52.044;4.582;2022-10-15T05:36:16;75727.91;;;-144.37;100.00
36258;BME280;22294;52.044;4.582;2022-10-15T05:38:43;75725.88;;;-144.37;100.00
36258;BME280;22294;52.044;4.582;2022-10-15T05:41:08;75732.00;;;-144.37;100.00
36258;BME280;22294;52.044;4.582;2022-10-15T05:43:34;75736.09;;;-144.37;100.00
36258;BME280;22294;52.044;4.582;2022-10-15T05:45:59;75738.13;;;-144.37;100.00
36258;BME280;22294;52.044;4.582;2022-10-15T05:48:25;75740.19;;;-144.37;100.00
36258;BME280;22294;52.044;4.582;2022-10-15T05:50:50;75738.13;;;-144.37;100.00
36258;BME280;22294;52.044;4.582;2022-10-15T05:53:16;75758.59;;;-144.37;100.00
36258;BME280;22294;52.044;4.582;2022-10-15T05:55:41;75756.53;;;-144.37;100.00
36258;BME280;22294;52.044;4.582;2022-10-15T05:58:07;75760.63;;;-144.37;100.00
36258;BME280;22294;52.044;4.582;2022-10-15T06:00:32;75754.50;;;-144.37;100.00
36258;BME280;22294;52.044;4.582;2022-10-15T06:02:57;75748.34;;;-144.37;100.00
36258;BME280;22294;52.044;4.582;2022-10-15T06:05:23;75746.31;;;-144.37;100.00
36258;BME280;22294;52.044;4.582;2022-10-15T06:07:48;75738.13;;;-144.37;100.00
36258;BME280;22294;52.044;4.582;2022-10-15T06:10:14;75729.94;;;-144.37;100.00
36258;BME280;22294;52.044;4.582;2022-10-15T06:12:39;75727.91;;;-144.37;100.00
36258;BME280;22294;52.044;4.582;2022-10-15T06:15:05;75723.81;;;-144.37;100.00
36258;BME280;22294;52.044;4.582;2022-10-15T06:17:30;75721.78;;;-144.37;100.00
36258;BME280;22294;52.044;4.582;2022-10-15T06:19:56;75719.72;;;-144.37;100.00
36258;BME280;22294;52.044;4.582;2022-10-15T06:22:21;75709.50;;;-144.37;100.00
36258;BME280;22294;52.044;4.582;2022-10-15T06:24:46;75707.47;;;-144.37;100.00
36258;BME280;22294;52.044;4.582;2022-10-15T06:27:12;75711.53;;;-144.37;100.00
36258;BME280;22294;52.044;4.582;2022-10-15T06:29:38;75699.28;;;-144.37;100.00
36258;BME280;22294;52.044;4.582;2022-10-15T06:32:03;75703.38;;;-144.37;100.00
36258;BME280;22294;52.044;4.582;2022-10-15T06:34:29;75699.28;;;-144.37;100.00
36258;BME280;22294;52.044;4.582;2022-10-15T06:36:54;75695.19;;;-144.37;100.00
36258;BME280;22294;52.044;4.582;2022-10-15T06:39:19;75693.16;;;-144.37;100.00
36258;BME280;22294;52.044;4.582;2022-10-15T06:41:45;75693.16;;;-144.37;100.00
36258;BME280;22294;52.044;4.582;2022-10-15T06:44:10;75687.00;;;-144.37;100.00
36258;BME280;22294;52.044;4.582;2022-10-15T06:46:35;75695.19;;;-144.37;100.00
36258;BME280;22294;52.044;4.582;2022-10-15T06:49:01;75693.16;;;-144.37;100.00
36258;BME280;22294;52.044;4.582;2022-10-15T06:51:26;75693.16;;;-144.37;100.00
36258;BME280;22294;52.044;4.582;2022-10-15T06:53:51;75693.16;;;-144.37;100.00
36258;BME280;22294;52.044;4.582;2022-10-15T06:56:16;75680.88;;;-144.37;100.00
36258;BME280;22294;52.044;4.582;2022-10-15T06:58:42;75678.81;;;-144.37;100.00
36258;BME280;22294;52.044;4.582;2022-10-15T07:01:07;75666.56;;;-144.37;100.00
36258;BME280;22294;52.044;4.582;2022-10-15T07:03:34;75664.50;;;-144.37;100.00
36258;BME280;22294;52.044;4.582;2022-10-15T07:06:05;75658.38;;;-144.37;100.00
36258;BME280;22294;52.044;4.582;2022-10-15T07:08:31;75656.34;;;-144.37;100.00
36258;BME280;22294;52.044;4.582;2022-10-15T07:10:57;75648.16;;;-144.37;100.00
36258;BME280;22294;52.044;4.582;2022-10-15T07:13:22;75646.09;;;-144.37;100.00
36258;BME280;22294;52.044;4.582;2022-10-15T07:15:48;75650.19;;;-144.37;100.00
36258;BME280;22294;52.044;4.582;2022-10-15T07:18:18;75644.06;;;-144.37;100.00
36258;BME280;22294;52.044;4.582;2022-10-15T07:20:43;75644.06;;;-144.37;100.00
36258;BME280;22294;52.044;4.582;2022-10-15T07:23:08;75635.88;;;-144.37;100.00
36258;BME280;22294;52.044;4.582;2022-10-15T07:25:34;75627.72;;;-144.37;100.00
36258;BME280;22294;52.044;4.582;2022-10-15T07:27:59;75623.63;;;-144.37;100.00
36258;BME280;22294;52.044;4.582;2022-10-15T07:30:25;75627.72;;;-144.37;100.00
36258;BME280;22294;52.044;4.582;2022-10-15T07:32:57;75623.63;;;-144.37;100.00
36258;BME280;22294;52.044;4.582;2022-10-15T07:35:24;75615.44;;;-144.37;100.00
36258;BME280;22294;52.044;4.582;2022-10-15T07:37:49;75625.66;;;-144.37;100.00
36258;BME280;22294;52.044;4.582;2022-10-15T07:40:16;75619.53;;;-144.37;100.00
36258;BME280;22294;52.044;4.582;2022-10-15T07:42:41;75625.66;;;-144.37;100.00
36258;BME280;22294;52.044;4.582;2022-10-15T07:45:07;75629.75;;;-144.37;100.00
36258;BME280;22294;52.044;4.582;2022-10-15T07:47:33;75631.78;;;-144.37;100.00
36258;BME280;22294;52.044;4.582;2022-10-15T07:49:58;75635.88;;;-144.37;100.00
36258;BME280;22294;52.044;4.582;2022-10-15T07:52:23;75631.78;;;-144.37;100.00
36258;BME280;22294;52.044;4.582;2022-10-15T07:54:49;75623.63;;;-144.37;100.00
36258;BME280;22294;52.044;4.582;2022-10-15T07:57:15;75623.63;;;-144.37;100.00
36258;BME280;22294;52.044;4.582;2022-10-15T07:59:42;75613.38;;;-144.37;100.00
36258;BME280;22294;52.044;4.582;2022-10-15T08:02:14;75609.31;;;-144.37;100.00
36258;BME280;22294;52.044;4.582;2022-10-15T08:04:41;75603.16;;;-144.37;100.00
36258;BME280;22294;52.044;4.582;2022-10-15T08:07:07;75592.94;;;-144.37;100.00
36258;BME280;22294;52.044;4.582;2022-10-15T08:09:33;75586.81;;;-144.37;100.00
36258;BME280;22294;52.044;4.582;2022-10-15T08:11:59;75574.53;;;-144.37;100.00
36258;BME280;22294;52.044;4.582;2022-10-15T08:14:25;75566.34;;;-144.37;100.00
36258;BME280;22294;52.044;4.582;2022-10-15T08:16:50;75560.22;;;-144.37;100.00
36258;BME280;22294;52.044;4.582;2022-10-15T08:19:15;75554.09;;;-144.37;100.00
36258;BME280;22294;52.044;4.582;2022-10-15T08:21:43;75545.91;;;-144.37;100.00
36258;BME280;22294;52.044;4.582;2022-10-15T08:24:08;75543.88;;;-144.37;100.00
36258;BME280;22294;52.044;4.582;2022-10-15T08:26:34;75529.56;;;-144.37;100.00
36258;BME280;22294;52.044;4.582;2022-10-15T08:29:00;75513.19;;;-144.37;100.00
36258;BME280;22294;52.044;4.582;2022-10-15T08:31:25;75502.97;;;-144.37;100.00
36258;BME280;22294;52.044;4.582;2022-10-15T08:33:50;75482.53;;;-144.37;100.00
36258;BME280;22294;52.044;4.582;2022-10-15T08:36:16;75474.34;;;-144.37;100.00
36258;BME280;22294;52.044;4.582;2022-10-15T08:38:41;75466.16;;;-144.37;100.00
36258;BME280;22294;52.044;4.582;2022-10-15T08:41:19;75462.06;;;-144.37;100.00
36258;BME280;22294;52.044;4.582;2022-10-15T08:43:48;75460.03;;;-144.37;100.00
36258;BME280;22294;52.044;4.582;2022-10-15T08:46:24;75451.84;;;-144.37;100.00
36258;BME280;22294;52.044;4.582;2022-10-15T08:48:55;75447.75;;;-144.37;100.00
36258;BME280;22294;52.044;4.582;2022-10-15T08:51:24;75443.66;;;-144.37;100.00
36258;BME280;22294;52.044;4.582;2022-10-15T08:53:55;75441.63;;;-144.37;100.00
36258;BME280;22294;52.044;4.582;2022-10-15T08:56:37;75433.44;;;-144.37;100.00
36258;BME280;22294;52.044;4.582;2022-10-15T09:02:07;75410.94;;;-144.37;100.00
36258;BME280;22294;52.044;4.582;2022-10-15T09:04:41;75404.81;;;-144.37;100.00
36258;BME280;22294;52.044;4.582;2022-10-15T09:07:20;75400.72;;;-144.37;100.00
36258;BME280;22294;52.044;4.582;2022-10-15T09:09:51;75408.91;;;-144.37;100.00
36258;BME280;22294;52.044;4.582;2022-10-15T09:12:31;75415.03;;;-144.37;100.00
36258;BME280;22294;52.044;4.582;2022-10-15T09:14:59;75394.59;;;-144.37;100.00
36258;BME280;22294;52.044;4.582;2022-10-15T09:17:28;75406.88;;;-144.37;100.00
36258;BME280;22294;52.044;4.582;2022-10-15T09:20:03;75406.88;;;-144.37;100.00
36258;BME280;22294;52.044;4.582;2022-10-15T09:22:31;75408.91;;;-144.37;100.00
36258;BME280;22294;52.044;4.582;2022-10-15T09:24:57;75415.03;;;-144.37;100.00
36258;BME280;22294;52.044;4.582;2022-10-15T09:27:37;75421.19;;;-144.37;100.00
36258;BME280;22294;52.044;4.582;2022-10-15T09:33:02;75417.09;;;-144.37;100.00
36258;BME280;22294;52.044;4.582;2022-10-15T09:35:39;75417.09;;;-144.37;100.00
36258;BME280;22294;52.044;4.582;2022-10-15T09:38:31;75413.00;;;-144.37;100.00
36258;BME280;22294;52.044;4.582;2022-10-15T09:41:22;75406.88;;;-144.37;100.00
36258;BME280;22294;52.044;4.582;2022-10-15T09:43:51;75404.81;;;-144.37;100.00
36258;BME280;22294;52.044;4.582;2022-10-15T09:46:19;75392.56;;;-144.37;100.00
36258;BME280;22294;52.044;4.582;2022-10-15T09:49:07;75398.69;;;-144.37;100.00
36258;BME280;22294;52.044;4.582;2022-10-15T09:51:39;75406.88;;;-144.37;100.00
36258;BME280;22294;52.044;4.582;2022-10-15T09:54:25;75398.69;;;-144.37;100.00
36258;BME280;22294;52.044;4.582;2022-10-15T09:56:58;75392.56;;;-144.37;100.00
36258;BME280;22294;52.044;4.582;2022-10-15T09:59:24;75392.56;;;-144.37;100.00
36258;BME280;22294;52.044;4.582;2022-10-15T10:02:03;75388.47;;;-144.37;100.00
36258;BME280;22294;52.044;4.582;2022-10-15T10:04:33;75382.31;;;-144.37;100.00
36258;BME280;22294;52.044;4.582;2022-10-15T10:07:04;75382.31;;;-144.37;100.00
36258;BME280;22294;52.044;4.582;2022-10-15T10:09:35;75384.38;;;-144.37;100.00
36258;BME280;22294;52.044;4.582;2022-10-15T10:12:03;75376.19;;;-144.37;100.00
36258;BME280;22294;52.044;4.582;2022-10-15T10:14:44;75384.38;;;-144.37;100.00
36258;BME280;22294;52.044;4.582;2022-10-15T10:19:43;75378.25;;;-144.37;100.00
36258;BME280;22294;52.044;4.582;2022-10-15T10:22:19;75378.25;;;-144.37;100.00
36258;BME280;22294;52.044;4.582;2022-10-15T10:24:45;75378.25;;;-144.37;100.00
36258;BME280;22294;52.044;4.582;2022-10-15T10:27:26;75378.25;;;-144.37;100.00
36258;BME280;22294;52.044;4.582;2022-10-15T10:29:57;75390.50;;;-144.37;100.00
36258;BME280;22294;52.044;4.582;2022-10-15T10:32:30;75374.16;;;-144.37;100.00
36258;BME280;22294;52.044;4.582;2022-10-15T10:34:58;75376.19;;;-144.37;100.00
36258;BME280;22294;52.044;4.582;2022-10-15T10:37:24;75368.00;;;-144.37;100.00
36258;BME280;22294;52.044;4.582;2022-10-15T10:39:58;75365.97;;;-144.37;100.00
36258;BME280;22294;52.044;4.582;2022-10-15T10:42:32;75368.00;;;-144.37;100.00
36258;BME280;22294;52.044;4.582;2022-10-15T10:45:20;75370.06;;;-144.37;100.00
36258;BME280;22294;52.044;4.582;2022-10-15T10:47:46;75363.91;;;-144.37;100.00
36258;BME280;22294;52.044;4.582;2022-10-15T10:50:33;75357.78;;;-144.37;100.00
36258;BME280;22294;52.044;4.582;2022-10-15T10:53:16;75349.59;;;-144.37;100.00
36258;BME280;22294;52.044;4.582;2022-10-15T10:55:44;75345.53;;;-144.37;100.00
36258;BME280;22294;52.044;4.582;2022-10-15T10:58:16;75347.56;;;-144.37;100.00
36258;BME280;22294;52.044;4.582;2022-10-15T11:00:45;75345.53;;;-144.37;100.00
36258;BME280;22294;52.044;4.582;2022-10-15T11:05:44;75341.44;;;-144.37;100.00
36258;BME280;22294;52.044;4.582;2022-10-15T11:17:13;75325.06;;;-144.37;100.00
36258;BME280;22294;52.044;4.582;2022-10-15T11:22:45;75310.75;;;-144.37;100.00
36258;BME280;22294;52.044;4.582;2022-10-15T11:28:22;75302.59;;;-144.37;100.00
36258;BME280;22294;52.044;4.582;2022-10-15T11:31:03;75302.59;;;-144.37;100.00
36258;BME280;22294;52.044;4.582;2022-10-15T11:38:58;75290.31;;;-144.37;100.00
36258;BME280;22294;52.044;4.582;2022-10-15T11:41:38;75284.19;;;-144.37;100.00
36258;BME280;22294;52.044;4.582;2022-10-15T11:44:22;75286.22;;;-144.37;100.00
36258;BME280;22294;52.044;4.582;2022-10-15T11:47:10;75286.22;;;-144.37;100.00
36258;BME280;22294;52.044;4.582;2022-10-15T11:55:38;75284.19;;;-144.37;100.00
36258;BME280;22294;52.044;4.582;2022-10-15T11:58:14;75282.13;;;-144.37;100.00
36258;BME280;22294;52.044;4.582;2022-10-15T12:00:49;75247.38;;;-144.37;100.00
36258;BME280;22294;52.044;4.582;2022-10-15T12:03:18;75241.25;;;-144.37;100.00
36258;BME280;22294;52.044;4.582;2022-10-15T12:05:52;75228.97;;;-144.37;100.00
36258;BME280;22294;52.044;4.582;2022-10-15T12:08:19;75214.66;;;-144.37;100.00
36258;BME280;22294;52.044;4.582;2022-10-15T12:21:36;75177.84;;;-144.37;100.00
36258;BME280;22294;52.044;4.582;2022-10-15T12:24:03;75179.91;;;-144.37;100.00
36258;BME280;22294;52.044;4.582;2022-10-15T12:26:33;75179.91;;;-144.37;100.00
36258;BME280;22294;52.044;4.582;2022-10-15T12:29:01;75186.03;;;-144.37;100.00
36258;BME280;22294;52.044;4.582;2022-10-15T12:31:50;75188.06;;;-144.37;100.00
36258;BME280;22294;52.044;4.582;2022-10-15T12:34:35;75210.56;;;-144.37;100.00
36258;BME280;22294;52.044;4.582;2022-10-15T12:37:13;75220.78;;;-144.37;100.00
36258;BME280;22294;52.044;4.582;2022-10-15T12:39:41;75220.78;;;-144.37;100.00
36258;BME280;22294;52.044;4.582;2022-10-15T12:44:47;75208.53;;;-144.37;100.00
36258;BME280;22294;52.044;4.582;2022-10-15T12:47:12;75212.63;;;-144.37;100.00
36258;BME280;22294;52.044;4.582;2022-10-15T12:55:20;75206.47;;;-144.37;100.00
36258;BME280;22294;52.044;4.582;2022-10-15T13:02:49;75216.69;;;-144.37;100.00
36258;BME280;22294;52.044;4.582;2022-10-15T13:05:30;75212.63;;;-144.37;100.00
36258;BME280;22294;52.044;4.582;2022-10-15T13:07:58;75198.31;;;-144.37;100.00
36258;BME280;22294;52.044;4.582;2022-10-15T13:10:33;75194.22;;;-144.37;100.00
36258;BME280;22294;52.044;4.582;2022-10-15T13:13:04;75194.22;;;-144.37;100.00
36258;BME280;22294;52.044;4.582;2022-10-15T13:15:31;75198.31;;;-144.37;100.00
36258;BME280;22294;52.044;4.582;2022-10-15T13:17:59;75188.06;;;-144.37;100.00
36258;BME280;22294;52.044;4.582;2022-10-15T13:20:37;75196.25;;;-144.37;100.00
36258;BME280;22294;52.044;4.582;2022-10-15T13:23:17;75194.22;;;-144.37;100.00
36258;BME280;22294;52.044;4.582;2022-10-15T13:25:43;75200.34;;;-144.37;96.95
36258;BME280;22294;52.044;4.582;2022-10-15T13:30:53;75222.84;;;-144.37;91.39
36258;BME280;22294;52.044;4.582;2022-10-15T13:33:19;75228.97;;;-144.37;89.27
36258;BME280;22294;52.044;4.582;2022-10-15T13:35:45;75228.97;;;-144.37;88.88
36258;BME280;22294;52.044;4.582;2022-10-15T13:38:20;75220.78;;;-144.37;87.18
36258;BME280;22294;52.044;4.582;2022-10-15T13:40:47;75220.78;;;-144.37;87.70
36258;BME280;22294;52.044;4.582;2022-10-15T13:43:17;75216.69;;;-144.37;86.00
36258;BME280;22294;52.044;4.582;2022-10-15T13:45:54;75208.53;;;-144.37;85.43
36258;BME280;22294;52.044;4.582;2022-10-15T13:48:22;75204.44;;;-144.37;84.71
36258;BME280;22294;52.044;4.582;2022-10-15T13:50:51;75214.66;;;-144.37;83.46
36258;BME280;22294;52.044;4.582;2022-10-15T13:53:39;75220.78;;;-144.37;83.93
36258;BME280;22294;52.044;4.582;2022-10-15T13:56:26;75216.69;;;-144.37;84.60
36258;BME280;22294;52.044;4.582;2022-10-15T13:58:53;75208.53;;;-144.37;84.45
36258;BME280;22294;52.044;4.582;2022-10-15T14:01:21;75216.69;;;-144.37;83.91
36258;BME280;22294;52.044;4.582;2022-10-15T14:03:49;75218.75;;;-144.37;83.50
36258;BME280;22294;52.044;4.582;2022-10-15T14:06:20;75231.00;;;-144.37;85.44
36258;BME280;22294;52.044;4.582;2022-10-15T14:08:48;75237.16;;;-144.37;85.68
36258;BME280;22294;52.044;4.582;2022-10-15T14:11:14;75241.25;;;-144.37;85.84